Time;durP1;ratioP1;P1;durP2;ratioP2;P2;SDS_P1;SDS_P2;PMS_P1;PMS_P2;Temp;Humidity;BMP_temperature;BMP_pressure;BME280_temperature;BME280_humidity;BME280_pressure;Samples;Min_cycle;Max_cycle;Signal;HPM_P1;HPM_P2
2023/12/18 00:03:46;;;;;;;;;;;;;;;17.50;45.85;101300.66;10330126;28;809;-73
2023/12/18 00:08:42;;;;;;;;;;;;;;;17.48;45.90;101305.13;10330578;28;802;-73
2023/12/18 00:13:38;;;;;;;;;;;;;;;17.48;45.69;101318.31;10330371;28;917;-73
2023/12/18 00:18:34;;;;;;;;;;;;;;;17.48;45.92;101311.25;10329583;28;1890;-73
2023/12/18 00:23:30;;;;;;;;;;;;;;;17.47;45.93;101306.88;10329414;28;921;-72
2023/12/18 00:28:26;;;;;;;;;;;;;;;17.45;45.86;101302.56;10329993;28;791;-73
2023/12/18 00:33:22;;;;;;;;;;;;;;;17.44;45.71;101296.38;10328920;28;895;-73
2023/12/18 00:38:18;;;;;;;;;;;;;;;17.45;45.78;101299.91;10310170;28;1910;-73
2023/12/18 00:43:15;;;;;;;;;;;;;;;17.44;45.76;101306.06;10328520;28;894;-73
2023/12/18 00:48:11;;;;;;;;;;;;;;;17.44;45.74;101295.50;10328461;28;797;-72
2023/12/18 00:53:06;;;;;;;;;;;;;;;17.42;45.73;101300.84;10328178;28;914;-73
2023/12/18 00:58:02;;;;;;;;;;;;;;;17.41;45.90;101306.97;10327861;28;1903;-73
2023/12/18 01:02:58;;;;;;;;;;;;;;;17.41;45.68;101309.63;10328319;28;870;-73
2023/12/18 01:07:54;;;;;;;;;;;;;;;17.43;45.76;101293.78;10327518;28;902;-73
2023/12/18 01:12:50;;;;;;;;;;;;;;;17.39;45.50;101273.63;10327372;28;838;-73
2023/12/18 01:17:46;;;;;;;;;;;;;;;17.39;45.73;101276.28;10327076;28;1919;-73
2023/12/18 01:22:42;;;;;;;;;;;;;;;17.39;45.75;101287.69;10327692;28;868;-72
2023/12/18 01:27:37;;;;;;;;;;;;;;;17.40;45.62;101291.22;10326813;28;929;-73
2023/12/18 01:32:33;;;;;;;;;;;;;;;17.38;45.57;101283.31;10326524;28;919;-73
2023/12/18 01:37:29;;;;;;;;;;;;;;;17.38;45.46;101271.91;10326284;28;1985;-72
2023/12/18 01:42:25;;;;;;;;;;;;;;;17.39;45.54;101279.78;10326263;28;803;-73
2023/12/18 01:47:21;;;;;;;;;;;;;;;17.38;45.39;101279.81;10326468;28;818;-73
2023/12/18 01:52:17;;;;;;;;;;;;;;;17.38;45.20;101290.38;10326075;28;735;-72
2023/12/18 01:57:13;;;;;;;;;;;;;;;17.37;45.41;101300.03;10325806;28;1951;-73
2023/12/18 02:02:09;;;;;;;;;;;;;;;17.39;45.25;101305.28;10325694;28;985;-73
2023/12/18 02:07:05;;;;;;;;;;;;;;;17.39;45.48;101316.66;10325671;28;763;-73
2023/12/18 02:12:01;;;;;;;;;;;;;;;17.36;45.69;101298.28;10326091;28;835;-73
2023/12/18 02:16:57;;;;;;;;;;;;;;;17.38;45.39;101295.63;10325943;28;1898;-73
2023/12/18 02:21:52;;;;;;;;;;;;;;;17.38;45.37;101306.19;10325425;28;909;-73
2023/12/18 02:26:48;;;;;;;;;;;;;;;17.37;45.46;101312.31;10325879;28;879;-73
2023/12/18 02:31:44;;;;;;;;;;;;;;;17.35;45.51;101309.72;10325093;28;898;-73
2023/12/18 02:36:40;;;;;;;;;;;;;;;17.35;45.53;101303.59;10307258;28;1975;-72
2023/12/18 02:41:36;;;;;;;;;;;;;;;17.35;45.44;101288.66;10324998;28;880;-73
2023/12/18 02:46:32;;;;;;;;;;;;;;;17.34;45.40;101286.03;10324870;28;910;-73
2023/12/18 02:51:28;;;;;;;;;;;;;;;17.33;45.27;101289.56;10325377;28;845;-72
2023/12/18 02:56:25;;;;;;;;;;;;;;;17.34;45.34;101291.28;10325161;28;1953;-73
2023/12/18 03:01:21;;;;;;;;;;;;;;;17.35;45.29;101295.69;10330912;28;919;-72
2023/12/18 03:06:17;;;;;;;;;;;;;;;17.33;45.26;101290.44;10332418;28;846;-73
2023/12/18 03:11:13;;;;;;;;;;;;;;;17.32;45.34;101286.06;10333378;28;883;-73
2023/12/18 03:16:09;;;;;;;;;;;;;;;17.29;45.54;101280.81;10331840;28;1952;-73
2023/12/18 03:21:05;;;;;;;;;;;;;;;17.29;45.19;101270.28;10331118;28;1234;-72
2023/12/18 03:26:00;;;;;;;;;;;;;;;17.30;45.25;101259.72;10331540;28;861;-73
2023/12/18 03:30:56;;;;;;;;;;;;;;;17.28;45.35;101266.78;10330895;28;1054;-73
2023/12/18 03:35:52;;;;;;;;;;;;;;;17.27;45.34;101280.88;10330934;28;1965;-72
2023/12/18 03:40:48;;;;;;;;;;;;;;;17.27;45.35;101277.38;10331798;28;841;-73
2023/12/18 03:45:44;;;;;;;;;;;;;;;17.28;45.28;101260.66;10330866;28;878;-73
2023/12/18 03:50:40;;;;;;;;;;;;;;;17.28;45.26;101245.69;10330684;28;875;-73
2023/12/18 03:55:36;;;;;;;;;;;;;;;17.25;45.15;101239.63;10331268;28;1965;-73
2023/12/18 04:00:32;;;;;;;;;;;;;;;17.22;45.33;101235.28;10330288;28;882;-72
2023/12/18 04:05:27;;;;;;;;;;;;;;;17.22;45.37;101239.69;10330717;28;829;-72
2023/12/18 04:10:23;;;;;;;;;;;;;;;17.24;45.16;101230.84;10330401;28;874;-72
2023/12/18 04:15:19;;;;;;;;;;;;;;;17.21;44.89;101225.66;10330827;28;1894;-73
2023/12/18 04:20:16;;;;;;;;;;;;;;;17.21;45.25;101237.91;10329575;28;921;-73
2023/12/18 04:25:12;;;;;;;;;;;;;;;17.19;45.16;101223.94;10329271;28;962;-73
2023/12/18 04:30:07;;;;;;;;;;;;;;;17.21;45.18;101224.75;10329179;28;803;-73
2023/12/18 04:35:03;;;;;;;;;;;;;;;17.20;45.21;101236.19;10329032;28;1981;-73
2023/12/18 04:39:59;;;;;;;;;;;;;;;17.21;45.00;101248.47;10329073;28;901;-73
2023/12/18 04:44:55;;;;;;;;;;;;;;;17.26;44.88;101252.75;10329124;28;861;-73
2023/12/18 04:49:51;;;;;;;;;;;;;;;17.30;44.90;101257.09;10328936;28;909;-73
2023/12/18 04:54:47;;;;;;;;;;;;;;;17.33;44.75;101258.81;10328743;28;750;-72
2023/12/18 04:59:43;;;;;;;;;;;;;;;17.38;44.94;101256.09;10328564;28;1890;-73
2023/12/18 05:04:38;;;;;;;;;;;;;;;17.37;44.86;101259.59;10327800;28;873;-72
2023/12/18 05:09:34;;;;;;;;;;;;;;;17.38;44.72;101256.09;10328281;28;878;-73
2023/12/18 05:14:30;;;;;;;;;;;;;;;17.41;44.85;101254.25;10327357;28;822;-73
2023/12/18 05:19:26;;;;;;;;;;;;;;;17.44;44.70;101266.53;10326463;28;1894;-72
2023/12/18 05:24:22;;;;;;;;;;;;;;;17.46;44.58;101254.19;10327165;28;842;-73
2023/12/18 05:29:18;;;;;;;;;;;;;;;17.47;44.73;101251.50;10327427;28;960;-72
2023/12/18 05:34:14;;;;;;;;;;;;;;;17.49;44.59;101254.13;10326932;28;1672;-73
2023/12/18 05:39:10;;;;;;;;;;;;;;;17.49;44.65;101247.09;10326399;28;1910;-73
2023/12/18 05:44:06;;;;;;;;;;;;;;;17.52;44.50;101254.94;10326397;28;883;-74
2023/12/18 05:49:02;;;;;;;;;;;;;;;17.57;44.36;101257.50;10326186;28;818;-73
2023/12/18 05:53:58;;;;;;;;;;;;;;;17.57;44.44;101257.50;10326706;28;858;-74
2023/12/18 05:58:55;;;;;;;;;;;;;;;17.60;44.49;101249.53;10325787;28;1951;-73
2023/12/18 06:03:51;;;;;;;;;;;;;;;17.57;44.54;101241.69;10326033;28;833;-74
2023/12/18 06:08:47;;;;;;;;;;;;;;;17.59;44.53;101241.66;10326260;28;821;-74
2023/12/18 06:13:43;;;;;;;;;;;;;;;17.65;44.35;101237.13;10325104;28;985;-74
2023/12/18 06:18:39;;;;;;;;;;;;;;;17.63;44.59;101230.13;10325326;28;1889;-74
2023/12/18 06:23:35;;;;;;;;;;;;;;;17.64;44.75;101238.03;10326010;28;834;-74
2023/12/18 06:28:31;;;;;;;;;;;;;;;17.69;44.78;101236.19;10325244;28;866;-73
2023/12/18 06:33:27;;;;;;;;;;;;;;;17.69;44.95;101237.94;10326866;28;787;-74
2023/12/18 06:38:22;;;;;;;;;;;;;;;17.69;44.89;101243.22;10333163;28;1985;-73
2023/12/18 06:43:18;;;;;;;;;;;;;;;17.72;44.77;101248.44;10333837;28;890;-74
2023/12/18 06:48:14;;;;;;;;;;;;;;;17.68;44.93;101250.28;10333880;28;878;-73
2023/12/18 06:53:10;;;;;;;;;;;;;;;17.61;45.06;101259.19;10332921;28;921;-76
2023/12/18 06:58:06;;;;;;;;;;;;;;;17.66;44.86;101262.63;10332636;28;1913;-73
2023/12/18 07:03:02;;;;;;;;;;;;;;;17.68;45.10;101262.56;10332426;28;982;-73
2023/12/18 07:07:58;;;;;;;;;;;;;;;17.64;45.12;101256.50;10332208;28;878;-76
2023/12/18 07:12:54;;;;;;;;;;;;;;;17.61;45.08;101255.69;10332767;28;759;-74
2023/12/18 07:17:50;;;;;;;;;;;;;;;17.52;44.79;101261.97;10331937;28;1968;-75
2023/12/18 07:22:45;;;;;;;;;;;;;;;17.47;44.79;101262.06;10332370;28;857;-73
2023/12/18 07:27:41;;;;;;;;;;;;;;;17.45;44.79;101278.81;10332138;28;767;-73
2023/12/18 07:32:37;;;;;;;;;;;;;;;17.38;44.76;101277.19;10329036;28;1073;-72
2023/12/18 07:37:33;;;;;;;;;;;;;;;17.36;44.94;101289.50;10329516;28;1985;-74
2023/12/18 07:42:29;;;;;;;;;;;;;;;17.39;45.22;101290.31;10331055;28;810;-74
2023/12/18 07:47:26;;;;;;;;;;;;;;;17.41;45.40;101299.06;10330511;28;1083;-77
2023/12/18 07:52:22;;;;;;;;;;;;;;;17.42;45.13;101294.66;10331288;28;794;-73
2023/12/18 07:57:18;;;;;;;;;;;;;;;17.44;45.29;101295.50;10330684;28;1906;-73
2023/12/18 08:02:14;;;;;;;;;;;;;;;17.44;45.08;101293.75;10330916;28;786;-73
2023/12/18 08:07:10;;;;;;;;;;;;;;;17.47;45.10;101290.19;10330932;28;917;-75
2023/12/18 08:12:05;;;;;;;;;;;;;;;17.50;44.80;101296.28;10330551;28;877;-74
2023/12/18 08:17:01;;;;;;;;;;;;;;;17.52;45.06;101281.28;10330337;28;1890;-73
2023/12/18 08:21:57;;;;;;;;;;;;;;;17.58;44.92;101285.63;10330226;28;984;-73
2023/12/18 08:26:53;;;;;;;;;;;;;;;17.58;44.88;101282.97;10330291;28;938;-73
2023/12/18 08:31:49;;;;;;;;;;;;;;;17.59;44.67;101287.34;10329182;28;773;-73
2023/12/18 08:36:45;;;;;;;;;;;;;;;17.58;44.64;101275.06;10329605;28;1905;-72
2023/12/18 08:41:45;;;;;;;;;;;;;;;17.60;44.34;101270.63;10328724;28;818;-73
2023/12/18 08:46:41;;;;;;;;;;;;;;;17.47;44.98;101267.31;10329092;28;852;-74
2023/12/18 08:51:37;;;;;;;;;;;;;;;17.40;45.12;101267.50;10328328;28;927;-74
2023/12/18 08:56:33;;;;;;;;;;;;;;;17.39;45.04;101273.63;10328020;28;1893;-72
2023/12/18 09:01:29;;;;;;;;;;;;;;;17.35;45.20;101264.06;10327969;28;779;-74
2023/12/18 09:06:25;;;;;;;;;;;;;;;17.36;44.97;101261.38;10327191;28;996;-74
2023/12/18 09:11:21;;;;;;;;;;;;;;;17.35;45.12;101257.03;10327515;28;798;-73
2023/12/18 09:16:17;;;;;;;;;;;;;;;17.35;45.00;101266.69;10327930;28;1890;-74
2023/12/18 09:21:12;;;;;;;;;;;;;;;17.33;44.91;101263.22;10328406;28;877;-73
2023/12/18 09:26:09;;;;;;;;;;;;;;;17.35;44.95;101253.53;10326957;28;960;-74
2023/12/18 09:31:05;;;;;;;;;;;;;;;17.30;44.86;101265.00;10327492;28;967;-74
2023/12/18 09:36:01;;;;;;;;;;;;;;;17.31;44.93;101261.44;10326054;28;1902;-74
2023/12/18 09:40:57;;;;;;;;;;;;;;;17.33;44.79;101257.94;10327010;28;890;-74
2023/12/18 09:45:53;;;;;;;;;;;;;;;17.30;44.77;101253.59;10325622;28;858;-76
2023/12/18 09:50:49;;;;;;;;;;;;;;;17.29;44.66;101233.38;10326719;28;850;-73
2023/12/18 09:55:44;;;;;;;;;;;;;;;17.30;44.91;101230.75;10326657;28;1893;-75
2023/12/18 10:00:40;;;;;;;;;;;;;;;17.28;44.54;101231.66;10325929;28;988;-74
2023/12/18 10:05:36;;;;;;;;;;;;;;;17.30;44.46;101236.00;10326368;28;806;-74
2023/12/18 10:10:32;;;;;;;;;;;;;;;17.29;44.68;101226.38;10325467;28;779;-73
2023/12/18 10:15:28;;;;;;;;;;;;;;;17.29;44.66;101209.66;10325489;28;1893;-75
2023/12/18 10:20:24;;;;;;;;;;;;;;;17.30;44.68;101206.16;10326058;28;838;-74
2023/12/18 10:25:20;;;;;;;;;;;;;;;17.30;44.51;101212.28;10325314;28;881;-74
2023/12/18 10:30:16;;;;;;;;;;;;;;;17.27;44.44;101207.09;10325810;28;858;-73
2023/12/18 10:35:12;;;;;;;;;;;;;;;17.30;44.52;101207.03;10325247;28;1906;-74
2023/12/18 10:40:07;;;;;;;;;;;;;;;17.30;44.32;101207.03;10325067;28;884;-74
2023/12/18 10:45:03;;;;;;;;;;;;;;;17.27;44.42;101206.22;10325169;28;794;-74
2023/12/18 10:49:59;;;;;;;;;;;;;;;17.29;44.30;101194.75;10324836;28;869;-75
2023/12/18 10:54:55;;;;;;;;;;;;;;;17.29;44.19;101196.50;10325300;28;849;-73
2023/12/18 10:59:51;;;;;;;;;;;;;;;17.28;44.55;101195.63;10324544;28;1951;-74
2023/12/18 11:04:47;;;;;;;;;;;;;;;17.29;44.38;101186.84;10325064;28;727;-73
2023/12/18 11:09:43;;;;;;;;;;;;;;;17.31;44.30;101181.53;10325062;28;823;-74
2023/12/18 11:14:39;;;;;;;;;;;;;;;17.30;44.40;101172.75;10325119;28;870;-73
2023/12/18 11:19:35;;;;;;;;;;;;;;;17.33;44.23;101165.69;10325960;28;1960;-74
2023/12/18 11:24:31;;;;;;;;;;;;;;;17.35;44.09;101158.63;10331730;28;874;-73
2023/12/18 11:29:27;;;;;;;;;;;;;;;17.34;44.12;101151.63;10331598;28;779;-74
2023/12/18 11:34:23;;;;;;;;;;;;;;;17.36;44.08;101147.19;10331659;28;1138;-74
2023/12/18 11:39:19;;;;;;;;;;;;;;;17.34;44.28;101136.66;10332004;28;1910;-73
2023/12/18 11:44:15;;;;;;;;;;;;;;;17.33;44.42;101137.56;10331599;28;861;-74
2023/12/18 11:49:11;;;;;;;;;;;;;;;17.37;44.25;101128.72;10330875;28;869;-74
2023/12/18 11:54:07;;;;;;;;;;;;;;;17.37;44.14;101128.72;10331294;28;850;-73
2023/12/18 11:59:03;;;;;;;;;;;;;;;17.39;44.12;101128.66;10330579;28;1949;-73
2023/12/18 12:03:59;;;;;;;;;;;;;;;17.42;44.11;101123.34;10330302;28;918;-73
2023/12/18 12:08:54;;;;;;;;;;;;;;;17.44;43.66;101118.91;10330291;28;770;-73
2023/12/18 12:13:50;;;;;;;;;;;;;;;17.44;43.99;101125.03;10330566;28;810;-74
2023/12/18 12:18:46;;;;;;;;;;;;;;;17.50;43.85;101118.78;10329644;28;1905;-73
2023/12/18 12:23:42;;;;;;;;;;;;;;;17.57;43.71;101112.47;10329537;28;1053;-73
2023/12/18 12:28:38;;;;;;;;;;;;;;;17.55;43.66;101105.50;10329581;28;869;-73
2023/12/18 12:33:34;;;;;;;;;;;;;;;17.62;43.41;101110.63;10329710;28;931;-73
2023/12/18 12:38:30;;;;;;;;;;;;;;;17.66;43.35;101103.53;10329346;28;1914;-73
2023/12/18 12:43:26;;;;;;;;;;;;;;;17.69;43.25;101100.84;10328787;28;874;-74
2023/12/18 12:48:21;;;;;;;;;;;;;;;17.72;43.28;101103.41;10328582;28;829;-74
2023/12/18 12:53:17;;;;;;;;;;;;;;;17.65;43.57;101101.78;10329167;28;851;-74
2023/12/18 12:58:13;;;;;;;;;;;;;;;17.73;43.45;101089.31;10328488;28;1898;-74
2023/12/18 13:03:09;;;;;;;;;;;;;;;17.82;43.23;101083.88;10327959;28;862;-74
2023/12/18 13:08:05;;;;;;;;;;;;;;;17.89;43.06;101084.59;10327737;28;833;-73
2023/12/18 13:13:01;;;;;;;;;;;;;;;17.94;43.31;101082.72;10328390;28;931;-74
2023/12/18 13:17:57;;;;;;;;;;;;;;;18.04;43.06;101084.25;10327585;28;1902;-74
2023/12/18 13:22:54;;;;;;;;;;;;;;;18.09;42.75;101071.81;10327157;28;897;-74
2023/12/18 13:27:50;;;;;;;;;;;;;;;18.10;42.81;101068.28;10326895;28;994;-73
2023/12/18 13:32:46;;;;;;;;;;;;;;;18.14;42.84;101064.66;10326690;28;1020;-74
2023/12/18 13:37:42;;;;;;;;;;;;;;;18.02;43.08;101072.84;10325822;28;1922;-75
2023/12/18 13:42:37;;;;;;;;;;;;;;;17.91;43.27;101064.31;10326632;28;845;-74
2023/12/18 13:47:33;;;;;;;;;;;;;;;17.81;43.47;101047.84;10326308;28;945;-74
2023/12/18 13:52:29;;;;;;;;;;;;;;;17.72;43.44;101048.88;10326872;28;917;-73
2023/12/18 13:57:25;;;;;;;;;;;;;;;17.64;43.63;101032.38;10326206;28;1897;-74
2023/12/18 14:02:22;;;;;;;;;;;;;;;17.61;43.65;101029.81;10326254;28;806;-73
2023/12/18 14:07:17;;;;;;;;;;;;;;;17.61;43.45;101027.16;10326022;28;876;-74
2023/12/18 14:12:13;;;;;;;;;;;;;;;17.55;43.82;101029.06;10325979;28;846;-73
2023/12/18 14:17:09;;;;;;;;;;;;;;;17.53;43.71;101027.34;10324853;28;1894;-73
2023/12/18 14:22:05;;;;;;;;;;;;;;;17.81;43.48;101020.59;10325188;28;903;-71
2023/12/18 14:27:01;;;;;;;;;;;;;;;17.79;43.42;101023.28;10325065;28;825;-71
2023/12/18 14:31:57;;;;;;;;;;;;;;;17.82;43.73;101036.41;10325668;28;770;-71
2023/12/18 14:36:53;;;;;;;;;;;;;;;17.83;43.71;101037.25;10325216;28;1913;-71
2023/12/18 14:41:51;;;;;;;;;;;;;;;17.81;43.64;101033.78;10324790;28;866;-71
2023/12/18 14:46:47;;;;;;;;;;;;;;;17.84;43.59;101036.34;10325326;28;883;-70
2023/12/18 14:51:42;;;;;;;;;;;;;;;17.82;43.77;101009.16;10325213;28;838;-71
2023/12/18 14:56:38;;;;;;;;;;;;;;;17.81;43.60;101002.13;10329681;28;1969;-71
2023/12/18 15:01:34;;;;;;;;;;;;;;;17.80;43.85;101000.41;10333086;28;759;-72
2023/12/18 15:06:30;;;;;;;;;;;;;;;17.82;43.75;100988.06;10333097;28;926;-71
2023/12/18 15:11:26;;;;;;;;;;;;;;;17.79;43.36;100996.00;10331649;28;916;-71
2023/12/18 15:16:22;;;;;;;;;;;;;;;17.77;43.61;100974.94;10331475;28;1965;-71
2023/12/18 15:21:18;;;;;;;;;;;;;;;17.76;43.54;100981.09;10332540;28;892;-71
2023/12/18 15:26:14;;;;;;;;;;;;;;;17.70;43.59;100995.31;10332325;28;872;-71
2023/12/18 15:31:09;;;;;;;;;;;;;;;17.73;44.10;100982.03;10331554;28;981;-71
2023/12/18 15:36:05;;;;;;;;;;;;;;;17.75;43.53;100977.59;10331384;28;1906;-71
2023/12/18 15:41:01;;;;;;;;;;;;;;;17.70;43.38;100990.03;10331849;28;791;-71
2023/12/18 15:45:57;;;;;;;;;;;;;;;17.61;43.27;101000.81;10331050;28;863;-71
2023/12/18 15:50:53;;;;;;;;;;;;;;;17.58;43.40;100995.59;10331210;28;794;-71
2023/12/18 15:55:49;;;;;;;;;;;;;;;17.52;43.78;101016.81;10330026;28;1963;-71
2023/12/18 16:00:45;;;;;;;;;;;;;;;17.44;43.68;100990.63;10330484;28;906;-71
2023/12/18 16:05:41;;;;;;;;;;;;;;;17.45;43.67;101002.91;10330473;28;818;-71
2023/12/18 16:10:37;;;;;;;;;;;;;;;17.45;43.69;101000.28;10330317;28;1046;-71
2023/12/18 16:15:33;;;;;;;;;;;;;;;17.48;43.77;101001.97;10330547;28;1961;-71
2023/12/18 16:20:29;;;;;;;;;;;;;;;17.44;43.35;100997.66;10330376;28;874;-71
2023/12/18 16:25:25;;;;;;;;;;;;;;;17.45;43.50;100965.16;10330303;28;846;-71
2023/12/18 16:30:21;;;;;;;;;;;;;;;17.50;43.46;100963.25;10329386;28;940;-71
2023/12/18 16:35:17;;;;;;;;;;;;;;;17.52;43.36;100964.94;10329857;28;1341;-70
2023/12/18 16:40:13;;;;;;;;;;;;;;;17.56;43.40;100946.44;10329008;28;1967;-72
2023/12/18 16:45:09;;;;;;;;;;;;;;;17.56;43.34;100939.41;10311505;28;793;-71
2023/12/18 16:50:06;;;;;;;;;;;;;;;17.59;43.26;100939.31;10328586;28;897;-71
2023/12/18 16:55:02;;;;;;;;;;;;;;;17.66;43.06;100961.16;10329218;28;894;-70
2023/12/18 16:59:58;;;;;;;;;;;;;;;17.65;43.43;100940.94;10328660;28;1882;-71
2023/12/18 17:04:54;;;;;;;;;;;;;;;17.69;43.52;100916.25;10327983;28;775;-70
2023/12/18 17:09:50;;;;;;;;;;;;;;;17.69;43.49;100906.56;10328488;28;937;-71
2023/12/18 17:14:48;;;;;;;;;;;;;;;17.67;43.51;100874.09;10327004;28;1067;-71
2023/12/18 17:19:44;;;;;;;;;;;;;;;17.69;43.29;100861.75;10326480;28;1893;-70
2023/12/18 17:24:39;;;;;;;;;;;;;;;17.71;43.31;100854.66;10326551;28;767;-70
2023/12/18 17:29:35;;;;;;;;;;;;;;;17.69;43.54;100867.00;10327133;28;829;-71
2023/12/18 17:34:31;;;;;;;;;;;;;;;17.74;43.52;100877.44;10327519;28;1254;-70
2023/12/18 17:39:27;;;;;;;;;;;;;;;17.79;43.38;100903.69;10326555;28;1971;-71
2023/12/18 17:44:23;;;;;;;;;;;;;;;17.74;43.42;100870.41;10326474;28;818;-71
2023/12/18 17:49:19;;;;;;;;;;;;;;;17.78;43.55;100881.72;10326280;28;841;-71
2023/12/18 17:54:15;;;;;;;;;;;;;;;17.80;43.19;100869.41;10326135;28;902;-70
2023/12/18 17:59:10;;;;;;;;;;;;;;;17.75;43.38;100844.91;10325867;28;1945;-69
2023/12/18 18:04:07;;;;;;;;;;;;;;;17.77;43.28;100853.63;10325886;28;890;-71
2023/12/18 18:09:03;;;;;;;;;;;;;;;17.79;43.42;100872.97;10326426;28;833;-70
2023/12/18 18:13:59;;;;;;;;;;;;;;;17.80;43.30;100890.50;10325658;28;760;-70
2023/12/18 18:18:55;;;;;;;;;;;;;;;17.81;43.44;100891.38;10326189;28;2315;-70
2023/12/18 18:23:51;;;;;;;;;;;;;;;17.81;43.31;100896.63;10326053;28;857;-71
2023/12/18 18:28:47;;;;;;;;;;;;;;;17.80;43.14;100901.06;10325926;28;818;-70
2023/12/18 18:33:43;;;;;;;;;;;;;;;17.84;43.49;100900.09;10325316;28;874;-71
2023/12/18 18:38:39;;;;;;;;;;;;;;;17.84;43.36;100902.72;10324666;28;1918;-70
2023/12/18 18:43:34;;;;;;;;;;;;;;;17.80;43.35;100858.00;10325653;28;949;-70
2023/12/18 18:48:30;;;;;;;;;;;;;;;17.84;43.32;100842.06;10325611;28;912;-71
2023/12/18 18:53:26;;;;;;;;;;;;;;;17.82;43.33;100832.47;10324982;28;839;-71
2023/12/18 18:58:22;;;;;;;;;;;;;;;17.84;43.17;100852.63;10325306;28;1902;-71
2023/12/18 19:03:19;;;;;;;;;;;;;;;17.85;43.15;100845.56;10325463;28;894;-70
2023/12/18 19:08:16;;;;;;;;;;;;;;;17.85;43.16;100856.13;10325137;28;1064;-70
2023/12/18 19:13:12;;;;;;;;;;;;;;;17.82;43.03;100864.09;10324430;28;873;-70
2023/12/18 19:18:07;;;;;;;;;;;;;;;17.85;43.08;100858.75;10324894;28;1901;-70
2023/12/18 19:23:04;;;;;;;;;;;;;;;17.86;43.21;100857.84;10324894;28;1066;-71
2023/12/18 19:27:59;;;;;;;;;;;;;;;17.81;43.12;100846.53;10324158;28;1050;-71
2023/12/18 19:32:55;;;;;;;;;;;;;;;17.87;43.26;100839.34;10323688;28;932;-71
2023/12/18 19:37:51;;;;;;;;;;;;;;;17.82;42.92;100833.31;10323279;28;1914;-70
2023/12/18 19:42:47;;;;;;;;;;;;;;;17.84;42.73;100841.16;10328896;28;771;-71
2023/12/18 19:47:44;;;;;;;;;;;;;;;17.85;42.94;100835.00;10331701;28;818;-71
2023/12/18 19:52:40;;;;;;;;;;;;;;;17.84;42.74;100827.97;10330789;28;903;-71
2023/12/18 19:57:36;;;;;;;;;;;;;;;17.82;42.63;100806.09;10330580;28;1957;-71
2023/12/18 20:02:32;;;;;;;;;;;;;;;17.84;42.94;100785.78;10330727;28;794;-71
2023/12/18 20:07:28;;;;;;;;;;;;;;;17.82;42.54;100779.72;10329667;28;1233;-70
2023/12/18 20:12:24;;;;;;;;;;;;;;;17.85;42.80;100762.03;10330154;28;770;-70
2023/12/18 20:17:25;;;;;;;;;;;;;;;17.86;42.76;100789.25;10330499;28;1956;-71
2023/12/18 20:22:21;;;;;;;;;;;;;;;17.82;42.81;100788.50;10329806;28;856;-70
2023/12/18 20:27:16;;;;;;;;;;;;;;;17.82;42.67;100782.34;10329586;28;802;-71
2023/12/18 20:32:12;;;;;;;;;;;;;;;17.82;42.64;100782.34;10329472;28;956;-70
2023/12/18 20:37:09;;;;;;;;;;;;;;;17.78;42.80;100780.66;10329323;28;1989;-71
2023/12/18 20:42:05;;;;;;;;;;;;;;;17.75;42.83;100771.91;10329516;28;786;-71
2023/12/18 20:47:03;;;;;;;;;;;;;;;17.74;42.75;100775.47;10328876;28;921;-70
2023/12/18 20:51:59;;;;;;;;;;;;;;;17.71;42.75;100765.00;10328001;28;810;-70
2023/12/18 20:56:55;;;;;;;;;;;;;;;17.72;42.93;100750.91;10328289;28;1905;-71
2023/12/18 21:01:51;;;;;;;;;;;;;;;17.66;42.94;100744.94;10328061;28;966;-70
2023/12/18 21:06:47;;;;;;;;;;;;;;;17.60;42.82;100751.22;10328527;28;846;-71
2023/12/18 21:11:43;;;;;;;;;;;;;;;17.57;42.99;100764.50;10328413;28;845;-71
2023/12/18 21:16:39;;;;;;;;;;;;;;;17.60;42.75;100753.88;10327515;28;1902;-70
2023/12/18 21:21:35;;;;;;;;;;;;;;;17.58;42.94;100766.25;10327349;28;767;-70
2023/12/18 21:26:30;;;;;;;;;;;;;;;17.59;42.97;100756.56;10327444;28;849;-70
2023/12/18 21:31:26;;;;;;;;;;;;;;;17.60;42.95;100755.63;10327115;28;1043;-70
2023/12/18 21:36:22;;;;;;;;;;;;;;;17.61;43.08;100762.66;10327416;28;1922;-70
2023/12/18 21:41:18;;;;;;;;;;;;;;;17.58;43.02;100755.69;10327185;28;842;-70
2023/12/18 21:46:14;;;;;;;;;;;;;;;17.54;43.22;100754.03;10327206;28;968;-70
2023/12/18 21:51:12;;;;;;;;;;;;;;;17.50;43.12;100719.00;10326318;28;874;-70
2023/12/18 21:56:08;;;;;;;;;;;;;;;17.49;43.22;100729.56;10326531;28;1949;-71
2023/12/18 22:01:04;;;;;;;;;;;;;;;17.48;43.31;100739.25;10325982;28;816;-70
2023/12/18 22:06:00;;;;;;;;;;;;;;;17.47;43.33;100744.53;10325495;28;771;-70
2023/12/18 22:10:56;;;;;;;;;;;;;;;17.44;43.29;100726.19;10326448;28;903;-70
2023/12/18 22:15:52;;;;;;;;;;;;;;;17.41;43.42;100726.28;10326197;28;1965;-70
2023/12/18 22:20:48;;;;;;;;;;;;;;;17.38;43.27;100705.28;10325563;28;854;-70
2023/12/18 22:25:43;;;;;;;;;;;;;;;17.39;43.55;100725.44;10326030;28;834;-70
2023/12/18 22:30:39;;;;;;;;;;;;;;;17.36;43.35;100721.09;10325366;28;908;-70
2023/12/18 22:35:36;;;;;;;;;;;;;;;17.35;43.50;100700.94;10325608;28;1902;-70
2023/12/18 22:40:31;;;;;;;;;;;;;;;17.38;43.06;100686.81;10325715;28;790;-70
2023/12/18 22:45:27;;;;;;;;;;;;;;;17.33;43.07;100659.72;10325412;28;1086;-71
2023/12/18 22:50:27;;;;;;;;;;;;;;;17.31;43.31;100649.22;10325013;28;810;-70
2023/12/18 22:55:23;;;;;;;;;;;;;;;17.31;43.26;100636.91;10324822;28;899;-70
2023/12/18 23:00:28;;;;;;;;;;;;;;;17.30;43.13;100624.66;10325298;28;1898;-70
2023/12/18 23:05:23;;;;;;;;;;;;;;;17.29;43.20;100627.31;10324723;28;867;-70
2023/12/18 23:10:19;;;;;;;;;;;;;;;17.29;43.48;100636.09;10325161;28;976;-70
2023/12/18 23:15:15;;;;;;;;;;;;;;;17.31;43.49;100649.22;10325846;28;809;-70
2023/12/18 23:20:11;;;;;;;;;;;;;;;17.28;43.12;100660.69;10332032;28;1963;-71
2023/12/18 23:25:07;;;;;;;;;;;;;;;17.28;43.67;100649.31;10332501;28;897;-70
2023/12/18 23:30:04;;;;;;;;;;;;;;;17.30;43.28;100636.97;10331831;28;766;-70
2023/12/18 23:35:00;;;;;;;;;;;;;;;17.26;43.44;100641.44;10332061;28;1195;-70
2023/12/18 23:39:56;;;;;;;;;;;;;;;17.26;43.36;100641.44;10330921;28;1968;-70
2023/12/18 23:44:52;;;;;;;;;;;;;;;17.26;43.54;100622.97;10330596;28;838;-70
2023/12/18 23:49:47;;;;;;;;;;;;;;;17.25;43.50;100631.81;10331639;28;854;-70
2023/12/18 23:54:43;;;;;;;;;;;;;;;17.25;43.55;100613.38;10330840;28;1040;-70
2023/12/18 23:59:39;;;;;;;;;;;;;;;17.24;43.44;100611.66;10330564;28;1898;-70
